Aviation Digital Data Service (ADDS)

Output produced by METARs form (0544 UTC 27 January 2015)
found at http://aviationweather.gov/adds/metars/
 
KAND 270520Z 2706/2806 24004KT P6SM SKC 
     FM270800 27006KT P6SM FEW050 BKN110 
     FM271400 28005KT P6SM BKN050 
     FM271800 31007G15KT P6SM SCT060